sensor_id;sensor_type;location;lat;lon;timestamp;P1;durP1;ratioP1;P2;durP2;ratioP2
28180;SDS011;15464;50.988;10.318;2022-09-01T00:01:48;3.13;;;2.20;;
28180;SDS011;15464;50.988;10.318;2022-09-01T00:04:21;2.30;;;2.10;;
28180;SDS011;15464;50.988;10.318;2022-09-01T00:06:52;5.00;;;1.80;;
28180;SDS011;15464;50.988;10.318;2022-09-01T00:09:20;4.72;;;1.67;;
28180;SDS011;15464;50.988;10.318;2022-09-01T00:11:49;5.40;;;1.75;;
28180;SDS011;15464;50.988;10.318;2022-09-01T00:14:19;4.53;;;1.80;;
28180;SDS011;15464;50.988;10.318;2022-09-01T00:16:55;1.77;;;1.40;;
28180;SDS011;15464;50.988;10.318;2022-09-01T00:19:23;4.72;;;1.98;;
28180;SDS011;15464;50.988;10.318;2022-09-01T00:21:50;2.67;;;1.73;;
28180;SDS011;15464;50.988;10.318;2022-09-01T00:24:17;3.47;;;1.90;;
28180;SDS011;15464;50.988;10.318;2022-09-01T00:26:44;5.47;;;1.75;;
28180;SDS011;15464;50.988;10.318;2022-09-01T00:29:12;3.13;;;1.60;;
28180;SDS011;15464;50.988;10.318;2022-09-01T00:31:39;3.60;;;1.83;;
28180;SDS011;15464;50.988;10.318;2022-09-01T00:34:06;2.97;;;1.73;;
28180;SDS011;15464;50.988;10.318;2022-09-01T00:36:33;2.92;;;1.85;;
28180;SDS011;15464;50.988;10.318;2022-09-01T00:39:00;2.90;;;1.60;;
28180;SDS011;15464;50.988;10.318;2022-09-01T00:41:28;6.18;;;1.73;;
28180;SDS011;15464;50.988;10.318;2022-09-01T00:43:57;2.97;;;1.50;;
28180;SDS011;15464;50.988;10.318;2022-09-01T00:46:27;4.78;;;1.83;;
28180;SDS011;15464;50.988;10.318;2022-09-01T00:48:59;5.30;;;1.90;;
28180;SDS011;15464;50.988;10.318;2022-09-01T00:51:29;2.50;;;1.65;;
28180;SDS011;15464;50.988;10.318;2022-09-01T00:53:58;2.78;;;1.92;;
28180;SDS011;15464;50.988;10.318;2022-09-01T00:56:27;2.67;;;1.50;;
28180;SDS011;15464;50.988;10.318;2022-09-01T00:58:55;1.98;;;1.77;;
28180;SDS011;15464;50.988;10.318;2022-09-01T01:01:22;3.10;;;1.70;;
28180;SDS011;15464;50.988;10.318;2022-09-01T01:03:49;3.97;;;1.67;;
28180;SDS011;15464;50.988;10.318;2022-09-01T01:06:15;3.15;;;2.10;;
28180;SDS011;15464;50.988;10.318;2022-09-01T01:08:45;3.08;;;1.23;;
28180;SDS011;15464;50.988;10.318;2022-09-01T01:11:25;1.83;;;1.40;;
28180;SDS011;15464;50.988;10.318;2022-09-01T01:16:35;3.17;;;1.88;;
28180;SDS011;15464;50.988;10.318;2022-09-01T01:19:02;3.22;;;1.52;;
28180;SDS011;15464;50.988;10.318;2022-09-01T01:21:34;3.25;;;2.00;;
28180;SDS011;15464;50.988;10.318;2022-09-01T01:24:27;3.60;;;1.77;;
28180;SDS011;15464;50.988;10.318;2022-09-01T01:26:57;3.58;;;1.42;;
28180;SDS011;15464;50.988;10.318;2022-09-01T01:29:30;3.53;;;1.63;;
28180;SDS011;15464;50.988;10.318;2022-09-01T01:31:58;3.22;;;1.73;;
28180;SDS011;15464;50.988;10.318;2022-09-01T01:34:27;2.05;;;1.30;;
28180;SDS011;15464;50.988;10.318;2022-09-01T01:36:54;2.20;;;1.45;;
28180;SDS011;15464;50.988;10.318;2022-09-01T01:39:25;1.73;;;1.25;;
28180;SDS011;15464;50.988;10.318;2022-09-01T01:41:52;3.22;;;1.30;;
28180;SDS011;15464;50.988;10.318;2022-09-01T01:44:22;2.03;;;1.30;;
28180;SDS011;15464;50.988;10.318;2022-09-01T01:46:53;4.40;;;1.60;;
28180;SDS011;15464;50.988;10.318;2022-09-01T01:49:23;2.88;;;1.38;;
28180;SDS011;15464;50.988;10.318;2022-09-01T01:51:53;1.88;;;1.48;;
28180;SDS011;15464;50.988;10.318;2022-09-01T01:54:21;5.95;;;1.30;;
28180;SDS011;15464;50.988;10.318;2022-09-01T01:56:51;5.53;;;1.33;;
28180;SDS011;15464;50.988;10.318;2022-09-01T01:59:17;5.30;;;1.67;;
28180;SDS011;15464;50.988;10.318;2022-09-01T02:01:44;5.50;;;1.90;;
28180;SDS011;15464;50.988;10.318;2022-09-01T02:04:17;2.80;;;1.20;;
28180;SDS011;15464;50.988;10.318;2022-09-01T02:06:46;2.38;;;1.40;;
28180;SDS011;15464;50.988;10.318;2022-09-01T02:09:15;3.28;;;1.33;;
28180;SDS011;15464;50.988;10.318;2022-09-01T02:11:43;2.85;;;1.50;;
28180;SDS011;15464;50.988;10.318;2022-09-01T02:14:10;4.90;;;1.48;;
28180;SDS011;15464;50.988;10.318;2022-09-01T02:16:38;2.38;;;1.30;;
28180;SDS011;15464;50.988;10.318;2022-09-01T02:19:06;2.80;;;1.40;;
28180;SDS011;15464;50.988;10.318;2022-09-01T02:21:35;2.20;;;1.30;;
28180;SDS011;15464;50.988;10.318;2022-09-01T02:24:03;5.03;;;1.58;;
28180;SDS011;15464;50.988;10.318;2022-09-01T02:26:32;1.48;;;1.20;;
28180;SDS011;15464;50.988;10.318;2022-09-01T02:29:08;2.88;;;1.35;;
28180;SDS011;15464;50.988;10.318;2022-09-01T02:31:43;2.22;;;1.58;;
28180;SDS011;15464;50.988;10.318;2022-09-01T02:34:12;2.30;;;1.80;;
28180;SDS011;15464;50.988;10.318;2022-09-01T02:36:43;2.60;;;2.00;;
28180;SDS011;15464;50.988;10.318;2022-09-01T02:39:15;3.22;;;1.67;;
28180;SDS011;15464;50.988;10.318;2022-09-01T02:44:10;3.05;;;2.40;;
28180;SDS011;15464;50.988;10.318;2022-09-01T02:46:38;3.80;;;2.60;;
28180;SDS011;15464;50.988;10.318;2022-09-01T02:49:10;8.35;;;3.08;;
28180;SDS011;15464;50.988;10.318;2022-09-01T02:51:44;4.47;;;2.95;;
28180;SDS011;15464;50.988;10.318;2022-09-01T02:54:14;3.83;;;2.38;;
28180;SDS011;15464;50.988;10.318;2022-09-01T02:56:44;3.75;;;2.45;;
28180;SDS011;15464;50.988;10.318;2022-09-01T02:59:15;2.72;;;2.28;;
28180;SDS011;15464;50.988;10.318;2022-09-01T03:01:42;5.07;;;2.30;;
28180;SDS011;15464;50.988;10.318;2022-09-01T03:04:12;3.83;;;2.10;;
28180;SDS011;15464;50.988;10.318;2022-09-01T03:06:40;3.38;;;2.50;;
28180;SDS011;15464;50.988;10.318;2022-09-01T03:09:08;2.60;;;2.10;;
28180;SDS011;15464;50.988;10.318;2022-09-01T03:11:41;3.83;;;2.03;;
28180;SDS011;15464;50.988;10.318;2022-09-01T03:14:09;4.97;;;2.00;;
28180;SDS011;15464;50.988;10.318;2022-09-01T03:16:37;2.90;;;2.38;;
28180;SDS011;15464;50.988;10.318;2022-09-01T03:19:05;3.13;;;2.13;;
28180;SDS011;15464;50.988;10.318;2022-09-01T03:21:34;4.32;;;2.28;;
28180;SDS011;15464;50.988;10.318;2022-09-01T03:24:02;3.28;;;2.15;;
28180;SDS011;15464;50.988;10.318;2022-09-01T03:26:29;4.28;;;2.40;;
28180;SDS011;15464;50.988;10.318;2022-09-01T03:28:56;3.25;;;1.95;;
28180;SDS011;15464;50.988;10.318;2022-09-01T03:31:24;2.38;;;2.10;;
28180;SDS011;15464;50.988;10.318;2022-09-01T03:33:56;2.60;;;2.20;;
28180;SDS011;15464;50.988;10.318;2022-09-01T03:36:23;3.78;;;2.17;;
28180;SDS011;15464;50.988;10.318;2022-09-01T03:38:51;3.20;;;1.92;;
28180;SDS011;15464;50.988;10.318;2022-09-01T03:41:20;4.47;;;2.75;;
28180;SDS011;15464;50.988;10.318;2022-09-01T03:43:50;2.38;;;2.00;;
28180;SDS011;15464;50.988;10.318;2022-09-01T03:46:20;4.22;;;2.25;;
28180;SDS011;15464;50.988;10.318;2022-09-01T03:48:48;2.70;;;2.33;;
28180;SDS011;15464;50.988;10.318;2022-09-01T03:51:18;3.90;;;2.45;;
28180;SDS011;15464;50.988;10.318;2022-09-01T03:53:48;3.72;;;2.42;;
28180;SDS011;15464;50.988;10.318;2022-09-01T03:56:20;2.65;;;1.98;;
28180;SDS011;15464;50.988;10.318;2022-09-01T03:58:49;3.85;;;1.92;;
28180;SDS011;15464;50.988;10.318;2022-09-01T04:01:17;2.78;;;1.85;;
28180;SDS011;15464;50.988;10.318;2022-09-01T04:03:45;5.57;;;2.15;;
28180;SDS011;15464;50.988;10.318;2022-09-01T04:06:16;6.82;;;2.38;;
28180;SDS011;15464;50.988;10.318;2022-09-01T04:08:49;4.65;;;2.40;;
28180;SDS011;15464;50.988;10.318;2022-09-01T04:11:19;3.83;;;2.05;;
28180;SDS011;15464;50.988;10.318;2022-09-01T04:13:49;2.97;;;2.00;;
28180;SDS011;15464;50.988;10.318;2022-09-01T04:16:24;2.92;;;2.13;;
28180;SDS011;15464;50.988;10.318;2022-09-01T04:19:14;3.00;;;2.10;;
28180;SDS011;15464;50.988;10.318;2022-09-01T04:21:46;3.65;;;2.25;;
28180;SDS011;15464;50.988;10.318;2022-09-01T04:24:18;2.17;;;1.80;;
28180;SDS011;15464;50.988;10.318;2022-09-01T04:26:49;3.33;;;1.80;;
28180;SDS011;15464;50.988;10.318;2022-09-01T04:29:18;6.70;;;2.27;;
28180;SDS011;15464;50.988;10.318;2022-09-01T04:31:53;4.05;;;1.90;;
28180;SDS011;15464;50.988;10.318;2022-09-01T04:34:21;2.63;;;2.13;;
28180;SDS011;15464;50.988;10.318;2022-09-01T04:36:49;4.30;;;2.50;;
28180;SDS011;15464;50.988;10.318;2022-09-01T04:39:20;4.93;;;2.90;;
28180;SDS011;15464;50.988;10.318;2022-09-01T04:41:47;3.20;;;2.47;;
28180;SDS011;15464;50.988;10.318;2022-09-01T04:44:16;4.23;;;2.57;;
28180;SDS011;15464;50.988;10.318;2022-09-01T04:46:44;4.55;;;2.63;;
28180;SDS011;15464;50.988;10.318;2022-09-01T04:49:14;4.38;;;2.70;;
28180;SDS011;15464;50.988;10.318;2022-09-01T04:54:12;2.95;;;2.47;;
28180;SDS011;15464;50.988;10.318;2022-09-01T04:56:40;3.17;;;2.45;;
28180;SDS011;15464;50.988;10.318;2022-09-01T04:59:09;2.90;;;2.47;;
28180;SDS011;15464;50.988;10.318;2022-09-01T05:01:38;7.25;;;2.78;;
28180;SDS011;15464;50.988;10.318;2022-09-01T05:04:09;5.18;;;2.88;;
28180;SDS011;15464;50.988;10.318;2022-09-01T05:06:39;4.03;;;2.75;;
28180;SDS011;15464;50.988;10.318;2022-09-01T05:09:08;4.45;;;2.60;;
28180;SDS011;15464;50.988;10.318;2022-09-01T05:11:37;5.88;;;2.92;;
28180;SDS011;15464;50.988;10.318;2022-09-01T05:16:33;4.03;;;2.60;;
28180;SDS011;15464;50.988;10.318;2022-09-01T05:19:01;4.47;;;3.13;;
28180;SDS011;15464;50.988;10.318;2022-09-01T05:21:28;4.78;;;2.83;;
28180;SDS011;15464;50.988;10.318;2022-09-01T05:23:57;4.78;;;2.97;;
28180;SDS011;15464;50.988;10.318;2022-09-01T05:26:27;3.35;;;2.28;;
28180;SDS011;15464;50.988;10.318;2022-09-01T05:29:00;5.55;;;2.85;;
28180;SDS011;15464;50.988;10.318;2022-09-01T05:31:29;3.35;;;2.60;;
28180;SDS011;15464;50.988;10.318;2022-09-01T05:34:03;5.78;;;2.50;;
28180;SDS011;15464;50.988;10.318;2022-09-01T05:36:33;8.55;;;2.97;;
28180;SDS011;15464;50.988;10.318;2022-09-01T05:38:59;4.68;;;2.25;;
28180;SDS011;15464;50.988;10.318;2022-09-01T05:41:27;3.95;;;2.63;;
28180;SDS011;15464;50.988;10.318;2022-09-01T05:43:54;4.72;;;2.45;;
28180;SDS011;15464;50.988;10.318;2022-09-01T05:46:26;6.90;;;2.58;;
28180;SDS011;15464;50.988;10.318;2022-09-01T05:48:53;6.28;;;2.45;;
28180;SDS011;15464;50.988;10.318;2022-09-01T05:51:23;4.57;;;2.70;;
28180;SDS011;15464;50.988;10.318;2022-09-01T05:54:09;4.93;;;2.70;;
28180;SDS011;15464;50.988;10.318;2022-09-01T05:56:37;4.30;;;2.85;;
28180;SDS011;15464;50.988;10.318;2022-09-01T05:59:09;6.18;;;2.55;;
28180;SDS011;15464;50.988;10.318;2022-09-01T06:01:53;6.32;;;2.42;;
28180;SDS011;15464;50.988;10.318;2022-09-01T06:04:20;5.43;;;2.70;;
28180;SDS011;15464;50.988;10.318;2022-09-01T06:09:35;3.75;;;2.35;;
28180;SDS011;15464;50.988;10.318;2022-09-01T06:12:04;6.00;;;2.37;;
28180;SDS011;15464;50.988;10.318;2022-09-01T06:14:32;4.35;;;2.45;;
28180;SDS011;15464;50.988;10.318;2022-09-01T06:16:58;4.10;;;2.53;;
28180;SDS011;15464;50.988;10.318;2022-09-01T06:19:26;3.78;;;2.47;;
28180;SDS011;15464;50.988;10.318;2022-09-01T06:21:53;3.22;;;1.95;;
28180;SDS011;15464;50.988;10.318;2022-09-01T06:24:20;5.18;;;2.00;;
28180;SDS011;15464;50.988;10.318;2022-09-01T06:26:47;4.50;;;2.30;;
28180;SDS011;15464;50.988;10.318;2022-09-01T06:29:13;3.75;;;1.90;;
28180;SDS011;15464;50.988;10.318;2022-09-01T06:31:41;3.33;;;2.25;;
28180;SDS011;15464;50.988;10.318;2022-09-01T06:34:09;4.03;;;1.77;;
28180;SDS011;15464;50.988;10.318;2022-09-01T06:36:43;6.95;;;2.03;;
28180;SDS011;15464;50.988;10.318;2022-09-01T06:39:11;3.70;;;2.00;;
28180;SDS011;15464;50.988;10.318;2022-09-01T06:41:49;3.13;;;1.80;;
28180;SDS011;15464;50.988;10.318;2022-09-01T06:44:19;3.33;;;1.75;;
28180;SDS011;15464;50.988;10.318;2022-09-01T06:46:49;3.30;;;1.65;;
28180;SDS011;15464;50.988;10.318;2022-09-01T06:49:17;2.30;;;1.50;;
28180;SDS011;15464;50.988;10.318;2022-09-01T06:51:46;4.53;;;1.70;;
28180;SDS011;15464;50.988;10.318;2022-09-01T06:54:17;7.65;;;1.73;;
28180;SDS011;15464;50.988;10.318;2022-09-01T06:59:17;6.55;;;1.95;;
28180;SDS011;15464;50.988;10.318;2022-09-01T07:01:45;2.92;;;1.70;;
28180;SDS011;15464;50.988;10.318;2022-09-01T07:04:14;3.45;;;1.77;;
28180;SDS011;15464;50.988;10.318;2022-09-01T07:06:46;6.00;;;2.00;;
28180;SDS011;15464;50.988;10.318;2022-09-01T07:09:26;4.50;;;2.17;;
28180;SDS011;15464;50.988;10.318;2022-09-01T07:12:14;3.95;;;1.80;;
28180;SDS011;15464;50.988;10.318;2022-09-01T07:15:05;3.90;;;1.63;;
28180;SDS011;15464;50.988;10.318;2022-09-01T07:17:52;6.57;;;1.70;;
28180;SDS011;15464;50.988;10.318;2022-09-01T07:20:23;3.83;;;1.80;;
28180;SDS011;15464;50.988;10.318;2022-09-01T07:22:53;4.60;;;1.83;;
28180;SDS011;15464;50.988;10.318;2022-09-01T07:25:31;3.20;;;1.80;;
28180;SDS011;15464;50.988;10.318;2022-09-01T07:28:21;2.92;;;1.40;;
28180;SDS011;15464;50.988;10.318;2022-09-01T07:31:02;7.55;;;1.77;;
28180;SDS011;15464;50.988;10.318;2022-09-01T07:33:51;3.45;;;1.88;;
28180;SDS011;15464;50.988;10.318;2022-09-01T07:36:40;5.80;;;1.80;;
28180;SDS011;15464;50.988;10.318;2022-09-01T07:39:30;5.15;;;1.83;;
28180;SDS011;15464;50.988;10.318;2022-09-01T07:42:17;3.30;;;1.48;;
28180;SDS011;15464;50.988;10.318;2022-09-01T07:45:05;8.80;;;7.10;;
28180;SDS011;15464;50.988;10.318;2022-09-01T07:47:53;5.63;;;2.00;;
28180;SDS011;15464;50.988;10.318;2022-09-01T07:50:20;4.80;;;1.77;;
28180;SDS011;15464;50.988;10.318;2022-09-01T07:53:09;7.57;;;1.88;;
28180;SDS011;15464;50.988;10.318;2022-09-01T07:55:38;3.38;;;1.90;;
28180;SDS011;15464;50.988;10.318;2022-09-01T07:58:09;2.78;;;1.45;;
28180;SDS011;15464;50.988;10.318;2022-09-01T08:00:37;4.90;;;1.92;;
28180;SDS011;15464;50.988;10.318;2022-09-01T08:03:11;5.80;;;1.50;;
28180;SDS011;15464;50.988;10.318;2022-09-01T08:05:39;4.75;;;1.45;;
28180;SDS011;15464;50.988;10.318;2022-09-01T08:08:06;2.45;;;1.58;;
28180;SDS011;15464;50.988;10.318;2022-09-01T08:10:44;4.68;;;2.08;;
28180;SDS011;15464;50.988;10.318;2022-09-01T08:13:14;2.42;;;1.50;;
28180;SDS011;15464;50.988;10.318;2022-09-01T08:15:44;4.85;;;1.60;;
28180;SDS011;15464;50.988;10.318;2022-09-01T08:18:30;2.42;;;1.70;;
28180;SDS011;15464;50.988;10.318;2022-09-01T08:21:14;1.92;;;1.58;;
28180;SDS011;15464;50.988;10.318;2022-09-01T08:23:42;2.90;;;1.70;;
28180;SDS011;15464;50.988;10.318;2022-09-01T08:26:11;3.72;;;1.83;;
28180;SDS011;15464;50.988;10.318;2022-09-01T08:28:38;4.07;;;1.73;;
28180;SDS011;15464;50.988;10.318;2022-09-01T08:31:12;5.20;;;1.70;;
28180;SDS011;15464;50.988;10.318;2022-09-01T08:33:41;4.60;;;1.77;;
28180;SDS011;15464;50.988;10.318;2022-09-01T08:36:10;5.47;;;1.55;;
28180;SDS011;15464;50.988;10.318;2022-09-01T08:38:38;3.25;;;1.63;;
28180;SDS011;15464;50.988;10.318;2022-09-01T08:41:14;4.38;;;1.38;;
28180;SDS011;15464;50.988;10.318;2022-09-01T08:46:40;5.43;;;1.40;;
28180;SDS011;15464;50.988;10.318;2022-09-01T08:49:11;5.72;;;1.67;;
28180;SDS011;15464;50.988;10.318;2022-09-01T08:51:56;5.03;;;1.90;;
28180;SDS011;15464;50.988;10.318;2022-09-01T08:57:28;3.42;;;1.23;;
28180;SDS011;15464;50.988;10.318;2022-09-01T08:59:57;5.30;;;1.70;;
28180;SDS011;15464;50.988;10.318;2022-09-01T09:02:34;3.03;;;1.52;;
28180;SDS011;15464;50.988;10.318;2022-09-01T09:08:06;7.83;;;2.00;;
28180;SDS011;15464;50.988;10.318;2022-09-01T09:19:15;5.25;;;1.73;;
28180;SDS011;15464;50.988;10.318;2022-09-01T09:22:03;7.10;;;1.92;;
28180;SDS011;15464;50.988;10.318;2022-09-01T09:24:52;8.38;;;2.08;;
28180;SDS011;15464;50.988;10.318;2022-09-01T09:27:39;5.57;;;1.73;;
28180;SDS011;15464;50.988;10.318;2022-09-01T09:30:08;6.72;;;1.85;;
28180;SDS011;15464;50.988;10.318;2022-09-01T09:40:57;7.38;;;1.90;;
28180;SDS011;15464;50.988;10.318;2022-09-01T09:43:59;3.40;;;1.90;;
28180;SDS011;15464;50.988;10.318;2022-09-01T09:46:40;7.15;;;1.80;;
28180;SDS011;15464;50.988;10.318;2022-09-01T09:51:37;4.43;;;1.65;;
28180;SDS011;15464;50.988;10.318;2022-09-01T09:56:44;3.63;;;1.80;;
28180;SDS011;15464;50.988;10.318;2022-09-01T09:59:15;5.70;;;1.58;;
28180;SDS011;15464;50.988;10.318;2022-09-01T10:02:20;4.43;;;2.33;;
28180;SDS011;15464;50.988;10.318;2022-09-01T10:04:53;2.58;;;1.33;;
28180;SDS011;15464;50.988;10.318;2022-09-01T10:10:07;4.75;;;1.50;;
28180;SDS011;15464;50.988;10.318;2022-09-01T10:12:52;3.58;;;1.70;;
28180;SDS011;15464;50.988;10.318;2022-09-01T10:15:22;4.13;;;1.30;;
28180;SDS011;15464;50.988;10.318;2022-09-01T10:17:51;4.43;;;1.70;;
28180;SDS011;15464;50.988;10.318;2022-09-01T10:20:44;2.28;;;1.42;;
28180;SDS011;15464;50.988;10.318;2022-09-01T10:23:14;3.67;;;1.70;;
28180;SDS011;15464;50.988;10.318;2022-09-01T10:25:40;2.72;;;1.45;;
28180;SDS011;15464;50.988;10.318;2022-09-01T10:28:11;3.55;;;1.50;;
28180;SDS011;15464;50.988;10.318;2022-09-01T10:30:46;2.30;;;1.55;;
28180;SDS011;15464;50.988;10.318;2022-09-01T10:33:14;7.72;;;2.05;;
28180;SDS011;15464;50.988;10.318;2022-09-01T10:35:48;5.63;;;1.67;;
28180;SDS011;15464;50.988;10.318;2022-09-01T10:38:26;3.60;;;1.30;;
28180;SDS011;15464;50.988;10.318;2022-09-01T10:40:55;2.45;;;1.27;;
28180;SDS011;15464;50.988;10.318;2022-09-01T10:43:38;2.67;;;1.60;;
28180;SDS011;15464;50.988;10.318;2022-09-01T10:49:12;2.55;;;1.27;;
28180;SDS011;15464;50.988;10.318;2022-09-01T10:51:53;2.37;;;1.60;;
28180;SDS011;15464;50.988;10.318;2022-09-01T10:54:48;2.95;;;1.50;;
28180;SDS011;15464;50.988;10.318;2022-09-01T10:57:31;4.73;;;1.50;;
28180;SDS011;15464;50.988;10.318;2022-09-01T11:00:53;4.32;;;1.60;;
28180;SDS011;15464;50.988;10.318;2022-09-01T11:08:46;6.68;;;1.50;;
28180;SDS011;15464;50.988;10.318;2022-09-01T11:11:33;5.90;;;1.40;;
28180;SDS011;15464;50.988;10.318;2022-09-01T11:14:22;5.45;;;1.50;;
28180;SDS011;15464;50.988;10.318;2022-09-01T11:22:39;6.20;;;1.42;;
28180;SDS011;15464;50.988;10.318;2022-09-01T11:30:35;6.53;;;1.50;;
28180;SDS011;15464;50.988;10.318;2022-09-01T11:35:36;2.95;;;1.30;;
28180;SDS011;15464;50.988;10.318;2022-09-01T11:38:04;1.58;;;1.10;;
28180;SDS011;15464;50.988;10.318;2022-09-01T11:40:34;3.33;;;1.30;;
28180;SDS011;15464;50.988;10.318;2022-09-01T11:43:35;6.30;;;1.35;;
28180;SDS011;15464;50.988;10.318;2022-09-01T11:46:04;5.45;;;1.60;;
28180;SDS011;15464;50.988;10.318;2022-09-01T11:48:44;7.72;;;1.50;;
28180;SDS011;15464;50.988;10.318;2022-09-01T11:51:16;4.70;;;1.40;;
28180;SDS011;15464;50.988;10.318;2022-09-01T11:53:43;3.05;;;1.40;;
28180;SDS011;15464;50.988;10.318;2022-09-01T11:56:15;3.08;;;1.60;;
28180;SDS011;15464;50.988;10.318;2022-09-01T11:58:49;4.80;;;1.42;;
28180;SDS011;15464;50.988;10.318;2022-09-01T12:01:18;4.00;;;1.58;;
28180;SDS011;15464;50.988;10.318;2022-09-01T12:03:56;2.53;;;1.50;;
28180;SDS011;15464;50.988;10.318;2022-09-01T12:06:25;3.90;;;1.00;;
28180;SDS011;15464;50.988;10.318;2022-09-01T12:08:58;3.25;;;1.23;;
28180;SDS011;15464;50.988;10.318;2022-09-01T12:11:28;2.33;;;1.17;;
28180;SDS011;15464;50.988;10.318;2022-09-01T12:13:58;5.88;;;1.23;;
28180;SDS011;15464;50.988;10.318;2022-09-01T12:16:30;2.65;;;1.40;;
28180;SDS011;15464;50.988;10.318;2022-09-01T12:19:00;3.90;;;1.20;;
28180;SDS011;15464;50.988;10.318;2022-09-01T12:21:28;4.70;;;1.70;;
28180;SDS011;15464;50.988;10.318;2022-09-01T12:25:00;7.15;;;1.55;;
28180;SDS011;15464;50.988;10.318;2022-09-01T12:26:59;3.67;;;1.30;;
28180;SDS011;15464;50.988;10.318;2022-09-01T12:29:26;4.45;;;1.50;;
28180;SDS011;15464;50.988;10.318;2022-09-01T12:31:57;7.10;;;1.60;;
28180;SDS011;15464;50.988;10.318;2022-09-01T12:34:39;2.45;;;1.23;;
28180;SDS011;15464;50.988;10.318;2022-09-01T12:39:43;3.03;;;1.20;;
28180;SDS011;15464;50.988;10.318;2022-09-01T12:42:22;2.92;;;1.40;;
28180;SDS011;15464;50.988;10.318;2022-09-01T12:44:51;3.10;;;1.70;;
28180;SDS011;15464;50.988;10.318;2022-09-01T12:50:06;3.60;;;1.10;;
28180;SDS011;15464;50.988;10.318;2022-09-01T12:58:18;4.05;;;1.98;;
28180;SDS011;15464;50.988;10.318;2022-09-01T13:03:21;5.10;;;1.50;;
28180;SDS011;15464;50.988;10.318;2022-09-01T13:05:49;6.10;;;1.50;;
28180;SDS011;15464;50.988;10.318;2022-09-01T13:10:50;4.53;;;1.20;;
28180;SDS011;15464;50.988;10.318;2022-09-01T13:13:19;4.22;;;1.13;;
28180;SDS011;15464;50.988;10.318;2022-09-01T13:15:51;4.55;;;1.70;;
28180;SDS011;15464;50.988;10.318;2022-09-01T13:18:23;5.28;;;1.70;;
28180;SDS011;15464;50.988;10.318;2022-09-01T13:20:51;4.13;;;1.40;;
28180;SDS011;15464;50.988;10.318;2022-09-01T13:23:19;1.87;;;1.10;;
28180;SDS011;15464;50.988;10.318;2022-09-01T13:25:46;3.17;;;1.15;;
28180;SDS011;15464;50.988;10.318;2022-09-01T13:28:14;2.28;;;1.20;;
28180;SDS011;15464;50.988;10.318;2022-09-01T13:30:46;4.07;;;1.57;;
28180;SDS011;15464;50.988;10.318;2022-09-01T13:33:39;4.25;;;1.20;;
28180;SDS011;15464;50.988;10.318;2022-09-01T13:36:25;2.40;;;1.35;;
28180;SDS011;15464;50.988;10.318;2022-09-01T13:39:11;3.35;;;1.48;;
28180;SDS011;15464;50.988;10.318;2022-09-01T13:41:38;4.30;;;1.10;;
28180;SDS011;15464;50.988;10.318;2022-09-01T13:44:05;4.95;;;1.40;;
28180;SDS011;15464;50.988;10.318;2022-09-01T13:46:32;4.80;;;1.40;;
28180;SDS011;15464;50.988;10.318;2022-09-01T13:48:58;5.38;;;1.55;;
28180;SDS011;15464;50.988;10.318;2022-09-01T13:51:30;3.88;;;1.20;;
28180;SDS011;15464;50.988;10.318;2022-09-01T13:53:56;6.05;;;1.38;;
28180;SDS011;15464;50.988;10.318;2022-09-01T13:56:23;3.80;;;1.27;;
28180;SDS011;15464;50.988;10.318;2022-09-01T13:58:50;4.28;;;1.40;;
28180;SDS011;15464;50.988;10.318;2022-09-01T14:01:17;4.43;;;1.30;;
28180;SDS011;15464;50.988;10.318;2022-09-01T14:03:44;3.35;;;1.30;;
28180;SDS011;15464;50.988;10.318;2022-09-01T14:06:16;6.10;;;1.30;;
28180;SDS011;15464;50.988;10.318;2022-09-01T14:08:43;2.90;;;1.33;;
28180;SDS011;15464;50.988;10.318;2022-09-01T14:11:14;4.82;;;1.55;;
28180;SDS011;15464;50.988;10.318;2022-09-01T14:13:42;7.38;;;1.17;;
28180;SDS011;15464;50.988;10.318;2022-09-01T14:16:11;4.18;;;1.30;;
28180;SDS011;15464;50.988;10.318;2022-09-01T14:18:40;4.03;;;1.27;;
28180;SDS011;15464;50.988;10.318;2022-09-01T14:21:11;3.97;;;1.13;;
28180;SDS011;15464;50.988;10.318;2022-09-01T14:23:41;3.63;;;1.00;;
28180;SDS011;15464;50.988;10.318;2022-09-01T14:26:09;4.35;;;1.05;;
28180;SDS011;15464;50.988;10.318;2022-09-01T14:28:38;1.88;;;1.10;;
28180;SDS011;15464;50.988;10.318;2022-09-01T14:31:08;8.68;;;1.40;;
28180;SDS011;15464;50.988;10.318;2022-09-01T14:33:37;2.58;;;0.98;;
28180;SDS011;15464;50.988;10.318;2022-09-01T14:36:04;3.67;;;1.10;;
28180;SDS011;15464;50.988;10.318;2022-09-01T14:38:37;2.30;;;1.20;;
28180;SDS011;15464;50.988;10.318;2022-09-01T14:41:04;4.65;;;1.10;;
28180;SDS011;15464;50.988;10.318;2022-09-01T14:43:30;5.03;;;1.33;;
28180;SDS011;15464;50.988;10.318;2022-09-01T14:46:02;7.43;;;1.27;;
28180;SDS011;15464;50.988;10.318;2022-09-01T14:48:32;3.25;;;1.00;;
28180;SDS011;15464;50.988;10.318;2022-09-01T14:50:59;1.90;;;1.27;;
28180;SDS011;15464;50.988;10.318;2022-09-01T14:53:27;3.47;;;1.38;;
28180;SDS011;15464;50.988;10.318;2022-09-01T14:55:56;6.25;;;1.50;;
28180;SDS011;15464;50.988;10.318;2022-09-01T14:58:23;7.20;;;1.60;;
28180;SDS011;15464;50.988;10.318;2022-09-01T15:00:52;5.50;;;1.38;;
28180;SDS011;15464;50.988;10.318;2022-09-01T15:03:32;4.13;;;1.40;;
28180;SDS011;15464;50.988;10.318;2022-09-01T15:05:59;3.30;;;1.20;;
28180;SDS011;15464;50.988;10.318;2022-09-01T15:08:26;6.53;;;1.45;;
28180;SDS011;15464;50.988;10.318;2022-09-01T15:10:52;3.10;;;1.00;;
28180;SDS011;15464;50.988;10.318;2022-09-01T15:13:19;3.25;;;1.30;;
28180;SDS011;15464;50.988;10.318;2022-09-01T15:15:46;2.15;;;1.25;;
28180;SDS011;15464;50.988;10.318;2022-09-01T15:18:13;3.78;;;1.05;;
28180;SDS011;15464;50.988;10.318;2022-09-01T15:20:40;3.67;;;1.00;;
28180;SDS011;15464;50.988;10.318;2022-09-01T15:23:15;3.60;;;1.25;;
28180;SDS011;15464;50.988;10.318;2022-09-01T15:25:46;4.03;;;1.10;;
28180;SDS011;15464;50.988;10.318;2022-09-01T15:28:13;3.60;;;1.00;;
28180;SDS011;15464;50.988;10.318;2022-09-01T15:30:41;4.57;;;1.15;;
28180;SDS011;15464;50.988;10.318;2022-09-01T15:33:12;6.60;;;1.13;;
28180;SDS011;15464;50.988;10.318;2022-09-01T15:35:41;1.63;;;1.10;;
28180;SDS011;15464;50.988;10.318;2022-09-01T15:38:08;4.68;;;1.30;;
28180;SDS011;15464;50.988;10.318;2022-09-01T15:40:39;2.58;;;1.38;;
28180;SDS011;15464;50.988;10.318;2022-09-01T15:43:07;4.18;;;1.27;;
28180;SDS011;15464;50.988;10.318;2022-09-01T15:45:34;4.50;;;1.30;;
28180;SDS011;15464;50.988;10.318;2022-09-01T15:48:01;1.70;;;0.88;;
28180;SDS011;15464;50.988;10.318;2022-09-01T15:50:28;3.58;;;1.30;;
28180;SDS011;15464;50.988;10.318;2022-09-01T15:55:27;3.13;;;1.10;;
28180;SDS011;15464;50.988;10.318;2022-09-01T15:58:08;2.85;;;1.10;;
28180;SDS011;15464;50.988;10.318;2022-09-01T16:00:38;2.65;;;1.08;;
28180;SDS011;15464;50.988;10.318;2022-09-01T16:03:06;1.43;;;0.80;;
28180;SDS011;15464;50.988;10.318;2022-09-01T16:05:34;1.70;;;0.95;;
28180;SDS011;15464;50.988;10.318;2022-09-01T16:08:03;2.65;;;0.80;;
28180;SDS011;15464;50.988;10.318;2022-09-01T16:10:35;4.47;;;1.00;;
28180;SDS011;15464;50.988;10.318;2022-09-01T16:13:05;2.70;;;0.90;;
28180;SDS011;15464;50.988;10.318;2022-09-01T16:15:32;4.15;;;0.98;;
28180;SDS011;15464;50.988;10.318;2022-09-01T16:18:10;2.42;;;0.95;;
28180;SDS011;15464;50.988;10.318;2022-09-01T16:21:05;2.35;;;1.15;;
28180;SDS011;15464;50.988;10.318;2022-09-01T16:26:08;7.23;;;1.20;;
28180;SDS011;15464;50.988;10.318;2022-09-01T16:28:37;6.95;;;1.17;;
28180;SDS011;15464;50.988;10.318;2022-09-01T16:31:09;4.10;;;1.20;;
28180;SDS011;15464;50.988;10.318;2022-09-01T16:33:42;10.15;;;1.00;;